Time,TemperatureF,DewpointF,PressureIn,WindDirection,WindDirectionDegrees,WindSpeedMPH,WindSpeedGustMPH,Humidity,HourlyPrecipIn,Conditions,Clouds,dailyrainin,SoftwareType,DateUTC
2013-07-28 17:00:00,84.6,69.8,29.86,NE,45,5.4,5.4,61,0.00,,,0.00,WUHU216HW,2013-07-28 22:00:00,
2013-07-28 17:05:00,84.8,69.8,29.86,ENE,68,11.0,11.2,61,0.00,,,0.00,WUHU216HW,2013-07-28 22:05:00,
2013-07-28 17:10:00,84.6,69.8,29.86,NNE,23,11.2,13.9,61,0.00,,,0.00,WUHU216HW,2013-07-28 22:10:00,
2013-07-28 17:15:00,84.1,69.2,29.86,NNE,23,11.4,13.9,61,0.00,,,0.00,WUHU216HW,2013-07-28 22:15:00,
2013-07-28 17:20:00,83.9,69.5,29.86,NE,45,12.3,13.2,62,0.00,,,0.00,WUHU216HW,2013-07-28 22:20:00,
2013-07-28 17:25:00,84.1,69.7,29.86,NNE,23,8.7,13.4,62,0.00,,,0.00,WUHU216HW,2013-07-28 22:25:00,
2013-07-28 17:30:00,83.9,69.5,29.86,NE,45,11.4,15.0,62,0.00,,,0.00,WUHU216HW,2013-07-28 22:30:00,
2013-07-28 17:35:00,83.7,69.3,29.86,NNE,23,7.8,15.0,62,0.00,,,0.00,WUHU216HW,2013-07-28 22:35:00,
2013-07-28 17:40:00,83.5,69.1,29.86,NE,45,12.1,13.6,62,0.00,,,0.00,WUHU216HW,2013-07-28 22:40:00,
2013-07-28 17:45:00,83.2,68.8,29.86,NE,45,12.1,15.0,62,0.00,,,0.00,WUHU216HW,2013-07-28 22:45:00,
2013-07-28 17:50:00,82.6,68.2,29.86,NNE,23,12.5,16.8,62,0.00,,,0.00,WUHU216HW,2013-07-28 22:50:00,
2013-07-28 17:55:00,82.4,68.0,29.86,NE,45,7.8,18.3,62,0.00,,,0.00,WUHU216HW,2013-07-28 22:55:00,
2013-07-28 18:00:00,82.6,68.2,29.86,NE,45,13.0,18.3,62,0.00,,,0.00,WUHU216HW,2013-07-28 23:00:00,
2013-07-28 18:05:00,82.6,68.2,29.86,NNE,23,4.9,13.0,62,0.00,,,0.00,WUHU216HW,2013-07-28 23:05:00,
2013-07-28 18:10:00,82.6,67.8,29.86,NE,45,11.6,13.0,61,0.00,,,0.00,WUHU216HW,2013-07-28 23:10:00,
2013-07-28 18:15:00,82.3,67.9,29.87,NE,45,8.1,14.8,62,0.00,,,0.00,WUHU216HW,2013-07-28 23:15:00,
2013-07-28 18:20:00,82.3,67.9,29.86,NNE,23,12.1,14.8,62,0.00,,,0.00,WUHU216HW,2013-07-28 23:20:00,
2013-07-28 18:25:00,82.1,67.7,29.86,NE,45,10.5,12.1,62,0.00,,,0.00,WUHU216HW,2013-07-28 23:25:00,
2013-07-28 18:30:00,81.9,67.6,29.86,NNE,23,11.4,15.7,62,0.00,,,0.00,WUHU216HW,2013-07-28 23:30:00,
2013-07-28 18:35:00,81.7,67.9,29.87,ENE,68,6.9,15.7,63,0.00,,,0.00,WUHU216HW,2013-07-28 23:35:00,
2013-07-28 18:40:00,81.4,67.5,29.87,NNE,23,11.2,13.2,63,0.00,,,0.00,WUHU216HW,2013-07-28 23:40:00,
2013-07-28 18:45:00,81.2,67.3,29.87,East,90,10.3,14.1,63,0.00,,,0.00,WUHU216HW,2013-07-28 23:45:00,
2013-07-28 18:50:00,80.8,67.1,29.87,NE,45,10.5,14.1,63,0.00,,,0.00,WUHU216HW,2013-07-28 23:50:00,
2013-07-28 18:55:00,80.5,67.1,29.88,NNE,23,11.0,13.6,64,0.00,,,0.00,WUHU216HW,2013-07-28 23:55:00,
2013-07-28 19:00:00,80.1,67.2,29.88,NE,45,9.6,13.6,65,0.00,,,0.00,WUHU216HW,2013-07-29 00:00:00,
2013-07-28 19:05:00,79.6,66.8,29.87,ENE,68,6.3,13.4,65,0.00,,,0.00,WUHU216HW,2013-07-29 00:05:00,
2013-07-28 19:10:00,79.4,67.1,29.88,NNE,23,9.6,13.4,66,0.00,,,0.00,WUHU216HW,2013-07-29 00:10:00,
2013-07-28 19:15:00,79.2,66.9,29.88,NE,45,7.4,15.4,66,0.00,,,0.00,WUHU216HW,2013-07-29 00:15:00,
2013-07-28 19:20:00,79.2,66.9,29.88,NNE,23,4.5,15.4,66,0.00,,,0.00,WUHU216HW,2013-07-29 00:20:00,
2013-07-28 19:25:00,79.0,66.7,29.88,ENE,68,6.9,12.5,66,0.00,,,0.00,WUHU216HW,2013-07-29 00:25:00,
2013-07-28 19:30:00,78.7,66.3,29.88,NE,45,9.2,10.3,66,0.00,,,0.00,WUHU216HW,2013-07-29 00:30:00,
2013-07-28 19:35:00,78.7,66.3,29.88,NE,45,5.4,13.2,66,0.00,,,0.00,WUHU216HW,2013-07-29 00:35:00,
2013-07-28 19:40:00,78.5,66.2,29.88,NE,45,8.9,13.2,66,0.00,,,0.00,WUHU216HW,2013-07-29 00:40:00,
2013-07-28 19:45:00,78.5,66.2,29.88,NE,45,4.0,11.9,66,0.00,,,0.00,WUHU216HW,2013-07-29 00:45:00,
2013-07-28 19:50:00,78.5,66.2,29.88,NNE,23,6.5,11.6,66,0.00,,,0.00,WUHU216HW,2013-07-29 00:50:00,
2013-07-28 19:55:00,78.1,65.8,29.88,NNE,23,6.5,10.3,66,0.00,,,0.00,WUHU216HW,2013-07-29 00:55:00,
2013-07-28 20:00:00,77.9,65.6,29.88,NE,45,5.4,10.3,66,0.00,,,0.00,WUHU216HW,2013-07-29 01:00:00,
2013-07-28 20:05:00,77.8,65.5,29.88,NNE,23,4.9,15.9,66,0.00,,,0.00,WUHU216HW,2013-07-29 01:05:00,
2013-07-28 20:10:00,77.6,65.4,29.88,NE,45,5.8,15.9,66,0.00,,,0.00,WUHU216HW,2013-07-29 01:10:00,
2013-07-28 20:15:00,77.4,65.2,29.88,North,0,12.8,13.9,66,0.00,,,0.00,WUHU216HW,2013-07-29 01:15:00,
2013-07-28 20:20:00,77.2,65.0,29.88,NE,45,9.2,12.8,66,0.00,,,0.00,WUHU216HW,2013-07-29 01:20:00,
2013-07-28 20:26:00,77.0,64.8,29.88,NE,45,11.4,12.8,66,0.00,,,0.00,WUHU216HW,2013-07-29 01:26:00,
2013-07-28 20:31:00,76.9,65.1,29.88,NNE,23,6.7,11.4,67,0.00,,,0.00,WUHU216HW,2013-07-29 01:31:00,
2013-07-28 20:36:00,76.7,64.9,29.88,NE,45,5.4,9.8,67,0.00,,,0.00,WUHU216HW,2013-07-29 01:36:00,
2013-07-28 20:41:00,76.7,64.9,29.88,ENE,68,6.3,9.2,67,0.00,,,0.00,WUHU216HW,2013-07-29 01:41:00,
2013-07-28 20:47:00,76.5,64.7,29.88,East,90,5.6,9.8,67,0.00,,,0.00,WUHU216HW,2013-07-29 01:47:00,
2013-07-28 20:52:00,76.3,65.0,29.88,NE,45,6.5,9.8,68,0.00,,,0.00,WUHU216HW,2013-07-29 01:52:00,
2013-07-28 20:57:00,76.1,64.8,29.88,East,90,4.9,8.5,68,0.00,,,0.00,WUHU216HW,2013-07-29 01:57:00,
2013-07-28 21:02:00,76.0,64.6,29.88,NNE,23,4.5,9.8,68,0.00,,,0.00,WUHU216HW,2013-07-29 02:02:00,
2013-07-28 21:07:00,76.0,65.1,29.88,NE,45,5.6,11.4,69,0.00,,,0.00,WUHU216HW,2013-07-29 02:07:00,
2013-07-28 21:12:00,75.8,64.9,29.88,NE,45,2.5,11.4,69,0.00,,,0.00,WUHU216HW,2013-07-29 02:12:00,
2013-07-28 21:18:00,75.6,64.7,29.88,NE,45,4.7,8.5,69,0.00,,,0.00,WUHU216HW,2013-07-29 02:18:00,
2013-07-28 21:23:00,75.4,64.5,29.88,ENE,68,2.5,8.5,69,0.00,,,0.00,WUHU216HW,2013-07-29 02:23:00,
2013-07-28 21:28:00,75.2,64.8,29.88,ENE,68,5.4,8.3,70,0.00,,,0.00,WUHU216HW,2013-07-29 02:28:00,
2013-07-28 21:33:00,75.2,64.8,29.89,East,90,4.7,6.9,70,0.00,,,0.00,WUHU216HW,2013-07-29 02:33:00,
2013-07-28 21:38:00,75.2,64.8,29.89,East,90,4.7,5.8,70,0.00,,,0.00,WUHU216HW,2013-07-29 02:38:00,
2013-07-28 21:44:00,75.2,64.8,29.89,NNE,23,4.7,5.4,70,0.00,,,0.00,WUHU216HW,2013-07-29 02:44:00,
2013-07-28 21:49:00,75.1,64.6,29.90,NNE,23,4.0,7.2,70,0.00,,,0.00,WUHU216HW,2013-07-29 02:49:00,
2013-07-28 21:54:00,75.1,65.1,29.89,NE,45,4.5,7.2,71,0.00,,,0.00,WUHU216HW,2013-07-29 02:54:00,
2013-07-28 21:59:00,75.1,65.1,29.90,ENE,68,2.7,7.6,71,0.00,,,0.00,WUHU216HW,2013-07-29 02:59:00,
2013-07-28 22:04:00,74.9,64.9,29.89,ENE,68,4.7,7.6,71,0.00,,,0.00,WUHU216HW,2013-07-29 03:04:00,
2013-07-28 22:09:00,74.9,64.9,29.90,NNE,23,3.1,6.9,71,0.00,,,0.00,WUHU216HW,2013-07-29 03:09:00,
2013-07-28 22:14:00,74.9,64.9,29.90,NE,45,3.1,6.9,71,0.00,,,0.00,WUHU216HW,2013-07-29 03:14:00,
2013-07-28 22:18:00,74.7,64.7,29.90,NNE,23,1.6,6.9,71,0.00,,,0.00,WUHU216HW,2013-07-29 03:18:00,